Station Historical Data
Daily Summary for January 23, 2017 Units:  English    Metric   Both
« Previous Day
Next Day »
Daily Weekly Monthly Yearly Custom
  High: Low: Average:
Temperature: 46.3 °F 34.4 °F 39.3 °F
Dew Point: 42.0 °F 28.1 °F 35.8 °F
Humidity: 96% 76% 87%
Wind Speed: 16.0mph 2.0mph 7mph
Wind Gust: 20.0mph - -
Wind- - NE
Pressure: 29.77 in 29.68 in -
Precipitation: 0.00 in    
Historical Graphs
 
 
Tabular Data for January 23, 2017
Time Temperature Dew Point Pressure Wind Wind Speed Wind Gust Humidity Rainfall Rate (Hourly)
00:04 37.1 °F 35.8 °F 29.72 in ENE 7.0 mph 14.0 mph 95% 0.00 in
00:09 37.1 °F 35.8 °F 29.72 in NE 8.0 mph 14.0 mph 95% 0.00 in
00:14 37.0 °F 35.7 °F 29.72 in NE 7.0 mph 13.0 mph 95% 0.00 in
00:19 37.0 °F 35.7 °F 29.72 in East 6.0 mph 12.0 mph 95% 0.00 in
00:24 37.0 °F 35.7 °F 29.72 in ENE 11.0 mph 15.0 mph 95% 0.00 in
00:29 36.9 °F 35.6 °F 29.72 in ESE 4.0 mph 13.0 mph 95% 0.00 in
00:34 36.9 °F 35.6 °F 29.72 in NE 8.0 mph 13.0 mph 95% 0.00 in
00:39 36.9 °F 35.6 °F 29.72 in NE 8.0 mph 12.0 mph 95% 0.00 in
00:44 36.8 °F 35.5 °F 29.72 in NE 9.0 mph 14.0 mph 95% 0.00 in
00:49 36.8 °F 35.5 °F 29.72 in NNE 4.0 mph 12.0 mph 95% 0.00 in
00:54 36.8 °F 35.5 °F 29.72 in NE 8.0 mph 13.0 mph 95% 0.00 in
00:59 36.8 °F 35.5 °F 29.73 in ENE 3.0 mph 11.0 mph 95% 0.00 in
01:04 36.8 °F 35.5 °F 29.73 in ENE 6.0 mph 15.0 mph 95% 0.00 in
01:09 36.8 °F 35.5 °F 29.73 in ENE 5.0 mph 15.0 mph 95% 0.00 in
01:14 36.8 °F 35.5 °F 29.73 in ENE 5.0 mph 10.0 mph 95% 0.00 in
01:19 36.8 °F 35.5 °F 29.73 in ENE 3.0 mph 15.0 mph 95% 0.00 in
01:24 36.8 °F 35.5 °F 29.74 in NE 6.0 mph 10.0 mph 95% 0.00 in
01:29 36.8 °F 35.5 °F 29.73 in NE 8.0 mph 15.0 mph 95% 0.00 in
01:34 36.8 °F 35.5 °F 29.74 in East 8.0 mph 13.0 mph 95% 0.00 in
01:39 36.8 °F 35.5 °F 29.74 in ENE 7.0 mph 15.0 mph 95% 0.00 in
01:44 36.8 °F 35.5 °F 29.73 in ENE 7.0 mph 15.0 mph 95% 0.00 in
01:49 36.8 °F 35.5 °F 29.73 in ENE 7.0 mph 15.0 mph 95% 0.00 in
01:54 36.7 °F 35.4 °F 29.73 in NE 5.0 mph 14.0 mph 95% 0.00 in
01:59 36.8 °F 35.5 °F 29.73 in NE 5.0 mph 13.0 mph 95% 0.00 in
02:04 36.7 °F 35.4 °F 29.73 in NE 10.0 mph 14.0 mph 95% 0.00 in
02:09 36.7 °F 35.4 °F 29.74 in ENE 7.0 mph 14.0 mph 95% 0.00 in
02:14 36.7 °F 35.4 °F 29.73 in ENE 6.0 mph 14.0 mph 95% 0.00 in
02:19 36.7 °F 35.4 °F 29.73 in ENE 7.0 mph 13.0 mph 95% 0.00 in
02:24 36.7 °F 35.4 °F 29.73 in NE 7.0 mph 13.0 mph 95% 0.00 in
02:29 36.7 °F 35.4 °F 29.73 in NE 6.0 mph 13.0 mph 95% 0.00 in
02:34 36.7 °F 35.4 °F 29.73 in East 3.0 mph 11.0 mph 95% 0.00 in
02:39 36.7 °F 35.4 °F 29.74 in ENE 7.0 mph 11.0 mph 95% 0.00 in
02:44 36.8 °F 35.5 °F 29.74 in NE 7.0 mph 13.0 mph 95% 0.00 in
02:49 36.8 °F 35.5 °F 29.74 in NE 7.0 mph 13.0 mph 95% 0.00 in
02:54 36.9 °F 35.6 °F 29.74 in ENE 7.0 mph 14.0 mph 95% 0.00 in
02:59 36.9 °F 35.6 °F 29.74 in NE 9.0 mph 14.0 mph 95% 0.00 in
03:04 36.9 °F 35.6 °F 29.73 in NE 5.0 mph 14.0 mph 95% 0.00 in
03:09 36.9 °F 35.6 °F 29.73 in NE 9.0 mph 14.0 mph 95% 0.00 in
03:14 37.0 °F 35.7 °F 29.73 in NE 8.0 mph 14.0 mph 95% 0.00 in
03:19 36.9 °F 35.6 °F 29.73 in NE 7.0 mph 14.0 mph 95% 0.00 in
03:24 37.0 °F 35.7 °F 29.73 in ENE 11.0 mph 14.0 mph 95% 0.00 in
03:29 37.0 °F 35.7 °F 29.73 in NE 9.0 mph 13.0 mph 95% 0.00 in
03:34 37.0 °F 35.7 °F 29.73 in NNE 8.0 mph 12.0 mph 95% 0.00 in
03:39 37.0 °F 35.7 °F 29.73 in ESE 10.0 mph 13.0 mph 95% 0.00 in
03:44 37.0 °F 35.7 °F 29.73 in NE 7.0 mph 13.0 mph 95% 0.00 in
03:49 37.1 °F 35.8 °F 29.72 in NE 6.0 mph 12.0 mph 95% 0.00 in
03:54 37.1 °F 35.8 °F 29.73 in NE 6.0 mph 12.0 mph 95% 0.00 in
03:59 37.1 °F 35.8 °F 29.72 in NE 6.0 mph 15.0 mph 95% 0.00 in
04:04 37.1 °F 35.8 °F 29.73 in NE 7.0 mph 12.0 mph 95% 0.00 in
04:09 37.2 °F 35.9 °F 29.73 in ENE 10.0 mph 12.0 mph 95% 0.00 in
04:14 37.2 °F 35.9 °F 29.73 in NE 6.0 mph 12.0 mph 95% 0.00 in
04:19 37.2 °F 35.9 °F 29.73 in ENE 6.0 mph 10.0 mph 95% 0.00 in
04:24 37.2 °F 35.9 °F 29.73 in NNE 6.0 mph 11.0 mph 95% 0.00 in
04:29 37.3 °F 36.0 °F 29.73 in ENE 7.0 mph 13.0 mph 95% 0.00 in
04:34 37.3 °F 36.0 °F 29.73 in East 5.0 mph 12.0 mph 95% 0.00 in
04:40 37.3 °F 36.0 °F 29.73 in NE 6.0 mph 13.0 mph 95% 0.00 in
04:45 37.3 °F 36.0 °F 29.72 in NE 6.0 mph 13.0 mph 95% 0.00 in
04:54 37.4 °F 36.1 °F 29.72 in NE 7.0 mph 14.0 mph 95% 0.00 in
04:59 37.4 °F 36.1 °F 29.72 in NE 7.0 mph 13.0 mph 95% 0.00 in
05:04 37.4 °F 36.1 °F 29.72 in NE 7.0 mph 15.0 mph 95% 0.00 in
05:09 37.4 °F 36.1 °F 29.72 in NE 7.0 mph 15.0 mph 95% 0.00 in
05:14 37.4 °F 36.1 °F 29.72 in NE 4.0 mph 14.0 mph 95% 0.00 in
05:19 37.4 °F 36.1 °F 29.72 in East 16.0 mph 16.0 mph 95% 0.00 in
05:24 37.5 °F 36.2 °F 29.72 in NE 9.0 mph 16.0 mph 95% 0.00 in
05:29 37.5 °F 36.5 °F 29.72 in NE 11.0 mph 14.0 mph 96% 0.00 in
05:34 37.5 °F 36.5 °F 29.72 in ENE 9.0 mph 14.0 mph 96% 0.00 in
05:39 37.5 °F 36.5 °F 29.73 in SE 9.0 mph 15.0 mph 96% 0.00 in
05:44 37.5 °F 36.2 °F 29.73 in ENE 6.0 mph 15.0 mph 95% 0.00 in
05:49 37.7 °F 36.4 °F 29.73 in ENE 5.0 mph 13.0 mph 95% 0.00 in
05:54 37.7 °F 36.4 °F 29.73 in ENE 6.0 mph 13.0 mph 95% 0.00 in
05:59 37.7 °F 36.4 °F 29.73 in ENE 6.0 mph 15.0 mph 95% 0.00 in
06:04 37.7 °F 36.4 °F 29.72 in ENE 6.0 mph 15.0 mph 95% 0.00 in
06:09 37.7 °F 36.4 °F 29.72 in NNE 5.0 mph 12.0 mph 95% 0.00 in
06:14 37.8 °F 36.5 °F 29.73 in NE 7.0 mph 12.0 mph 95% 0.00 in
06:19 37.8 °F 36.5 °F 29.73 in NE 4.0 mph 11.0 mph 95% 0.00 in
06:24 37.8 °F 36.5 °F 29.74 in NE 7.0 mph 15.0 mph 95% 0.00 in
06:29 37.9 °F 36.6 °F 29.74 in ENE 10.0 mph 14.0 mph 95% 0.00 in
06:34 37.9 °F 36.9 °F 29.74 in NNE 6.0 mph 10.0 mph 96% 0.00 in
06:39 38.0 °F 37.0 °F 29.74 in NE 9.0 mph 11.0 mph 96% 0.00 in
06:44 38.0 °F 37.0 °F 29.74 in ENE 5.0 mph 12.0 mph 96% 0.00 in
06:49 38.0 °F 37.0 °F 29.74 in NE 7.0 mph 12.0 mph 96% 0.00 in
06:54 38.0 °F 37.0 °F 29.74 in NE 7.0 mph 12.0 mph 96% 0.00 in
06:59 38.1 °F 37.1 °F 29.74 in NE 7.0 mph 13.0 mph 96% 0.00 in
07:04 38.1 °F 37.1 °F 29.74 in NE 7.0 mph 14.0 mph 96% 0.00 in
07:09 38.1 °F 37.1 °F 29.74 in North 4.0 mph 11.0 mph 96% 0.00 in
07:14 38.1 °F 37.1 °F 29.73 in NE 8.0 mph 11.0 mph 96% 0.00 in
07:19 38.1 °F 37.1 °F 29.74 in ENE 9.0 mph 13.0 mph 96% 0.00 in
07:24 38.1 °F 37.1 °F 29.74 in NE 4.0 mph 11.0 mph 96% 0.00 in
07:29 38.2 °F 37.2 °F 29.74 in NE 4.0 mph 10.0 mph 96% 0.00 in
07:34 38.2 °F 37.2 °F 29.74 in NE 6.0 mph 13.0 mph 96% 0.00 in
07:39 38.3 °F 37.3 °F 29.74 in East 7.0 mph 11.0 mph 96% 0.00 in
07:44 38.3 °F 37.3 °F 29.74 in NE 4.0 mph 11.0 mph 96% 0.00 in
07:49 38.4 °F 37.4 °F 29.74 in NE 6.0 mph 12.0 mph 96% 0.00 in
07:54 38.5 °F 37.5 °F 29.74 in NE 6.0 mph 12.0 mph 96% 0.00 in
07:59 38.5 °F 37.5 °F 29.74 in NE 6.0 mph 12.0 mph 96% 0.00 in
08:04 38.6 °F 37.6 °F 29.74 in NE 6.0 mph 14.0 mph 96% 0.00 in
08:09 38.8 °F 37.8 °F 29.74 in NE 9.0 mph 15.0 mph 96% 0.00 in
08:14 38.8 °F 37.8 °F 29.73 in NE 7.0 mph 15.0 mph 96% 0.00 in
08:19 38.9 °F 37.9 °F 29.74 in NE 8.0 mph 16.0 mph 96% 0.00 in
08:24 38.9 °F 37.9 °F 29.74 in ENE 8.0 mph 11.0 mph 96% 0.00 in
08:29 39.0 °F 38.0 °F 29.74 in NE 6.0 mph 12.0 mph 96% 0.00 in
08:34 39.1 °F 38.1 °F 29.75 in NE 4.0 mph 10.0 mph 96% 0.00 in
08:39 39.3 °F 38.3 °F 29.75 in NE 7.0 mph 11.0 mph 96% 0.00 in
08:44 39.4 °F 38.4 °F 29.75 in NE 5.0 mph 9.0 mph 96% 0.00 in
08:49 39.6 °F 38.6 °F 29.75 in NE 5.0 mph 9.0 mph 96% 0.00 in
08:54 39.7 °F 38.7 °F 29.76 in NE 5.0 mph 9.0 mph 96% 0.00 in
08:59 39.9 °F 38.9 °F 29.76 in ENE 4.0 mph 9.0 mph 96% 0.00 in
09:04 40.0 °F 39.0 °F 29.76 in ENE 5.0 mph 9.0 mph 96% 0.00 in
09:09 40.2 °F 39.2 °F 29.76 in NE 6.0 mph 10.0 mph 96% 0.00 in
09:14 40.3 °F 39.3 °F 29.76 in ENE 4.0 mph 10.0 mph 96% 0.00 in
09:19 40.4 °F 39.4 °F 29.76 in NNE 4.0 mph 9.0 mph 96% 0.00 in
09:24 40.6 °F 39.5 °F 29.76 in NE 5.0 mph 10.0 mph 96% 0.00 in
09:29 40.9 °F 39.6 °F 29.76 in NE 6.0 mph 11.0 mph 95% 0.00 in
09:34 41.2 °F 39.9 °F 29.76 in NE 6.0 mph 11.0 mph 95% 0.00 in
09:39 41.5 °F 40.2 °F 29.76 in ENE 5.0 mph 10.0 mph 95% 0.00 in
09:44 41.8 °F 40.5 °F 29.76 in NNE 3.0 mph 12.0 mph 95% 0.00 in
09:49 42.2 °F 40.6 °F 29.76 in NE 6.0 mph 12.0 mph 94% 0.00 in
09:54 42.3 °F 40.4 °F 29.76 in NE 6.0 mph 11.0 mph 93% 0.00 in
09:59 42.5 °F 40.6 °F 29.76 in NE 6.0 mph 13.0 mph 93% 0.00 in
10:04 42.8 °F 40.6 °F 29.76 in NE 6.0 mph 16.0 mph 92% 0.00 in
10:09 42.8 °F 40.6 °F 29.76 in ENE 2.0 mph 14.0 mph 92% 0.00 in
10:14 42.9 °F 40.5 °F 29.76 in ENE 8.0 mph 12.0 mph 91% 0.00 in
10:19 42.8 °F 40.4 °F 29.76 in NE 4.0 mph 10.0 mph 91% 0.00 in
10:24 42.7 °F 40.3 °F 29.76 in NNE 3.0 mph 11.0 mph 91% 0.00 in
10:29 42.6 °F 40.4 °F 29.76 in NE 4.0 mph 11.0 mph 92% 0.00 in
10:34 42.6 °F 40.4 °F 29.76 in NE 5.0 mph 11.0 mph 92% 0.00 in
10:39 42.7 °F 40.5 °F 29.76 in NE 5.0 mph 13.0 mph 92% 0.00 in
10:44 42.7 °F 40.3 °F 29.76 in East 6.0 mph 10.0 mph 91% 0.00 in
10:49 42.7 °F 40.5 °F 29.76 in ENE 5.0 mph 11.0 mph 92% 0.00 in
10:54 42.9 °F 40.5 °F 29.76 in NE 6.0 mph 11.0 mph 91% 0.00 in
10:59 43.1 °F 40.7 °F 29.76 in NE 6.0 mph 12.0 mph 91% 0.00 in
11:04 43.3 °F 40.8 °F 29.76 in NE 6.0 mph 12.0 mph 91% 0.00 in
11:09 43.5 °F 41.0 °F 29.75 in NE 6.0 mph 11.0 mph 91% 0.00 in
11:14 43.7 °F 41.0 °F 29.75 in NE 7.0 mph 13.0 mph 90% 0.00 in
11:19 44.1 °F 41.4 °F 29.75 in NE 7.0 mph 13.0 mph 90% 0.00 in
11:24 44.4 °F 41.7 °F 29.75 in NE 6.0 mph 15.0 mph 90% 0.00 in
11:29 44.8 °F 41.8 °F 29.75 in NNE 6.0 mph 15.0 mph 89% 0.00 in
11:34 45.2 °F 41.9 °F 29.75 in NE 7.0 mph 15.0 mph 88% 0.00 in
11:39 45.2 °F 41.9 °F 29.75 in NE 8.0 mph 13.0 mph 88% 0.00 in
11:44 45.3 °F 42.0 °F 29.74 in NE 7.0 mph 13.0 mph 88% 0.00 in
11:49 45.2 °F 41.9 °F 29.74 in NE 7.0 mph 13.0 mph 88% 0.00 in
11:54 45.2 °F 41.9 °F 29.73 in NNE 4.0 mph 12.0 mph 88% 0.00 in
11:59 45.1 °F 41.5 °F 29.73 in NE 7.0 mph 13.0 mph 87% 0.00 in
12:04 45.3 °F 41.7 °F 29.73 in NNE 4.0 mph 12.0 mph 87% 0.00 in
12:09 45.4 °F 41.8 °F 29.73 in NE 6.0 mph 12.0 mph 87% 0.00 in
12:14 45.4 °F 41.5 °F 29.73 in NE 6.0 mph 14.0 mph 86% 0.00 in
12:19 45.3 °F 41.4 °F 29.73 in NE 7.0 mph 14.0 mph 86% 0.00 in
12:24 45.6 °F 41.7 °F 29.73 in NE 7.0 mph 14.0 mph 86% 0.00 in
12:29 45.7 °F 41.4 °F 29.72 in NE 6.0 mph 13.0 mph 85% 0.00 in
12:34 46.2 °F 41.9 °F 29.72 in NE 6.0 mph 11.0 mph 85% 0.00 in
12:39 46.3 °F 41.7 °F 29.72 in ENE 6.0 mph 12.0 mph 84% 0.00 in
12:44 46.3 °F 41.7 °F 29.72 in NE 9.0 mph 14.0 mph 84% 0.00 in
12:49 45.9 °F 41.0 °F 29.72 in NE 8.0 mph 18.0 mph 83% 0.00 in
12:54 45.8 °F 40.9 °F 29.71 in ENE 11.0 mph 15.0 mph 83% 0.00 in
12:59 45.6 °F 41.0 °F 29.71 in NE 5.0 mph 17.0 mph 84% 0.00 in
13:04 45.9 °F 41.0 °F 29.71 in ESE 13.0 mph 15.0 mph 83% 0.00 in
13:09 46.0 °F 41.1 °F 29.70 in NE 8.0 mph 16.0 mph 83% 0.00 in
13:14 46.1 °F 40.9 °F 29.70 in NE 8.0 mph 16.0 mph 82% 0.00 in
13:19 46.0 °F 40.8 °F 29.70 in NE 8.0 mph 17.0 mph 82% 0.00 in
13:24 46.0 °F 40.8 °F 29.70 in ENE 8.0 mph 17.0 mph 82% 0.00 in
13:29 46.0 °F 41.1 °F 29.70 in ENE 8.0 mph 14.0 mph 83% 0.00 in
13:34 45.9 °F 41.0 °F 29.70 in ENE 7.0 mph 13.0 mph 83% 0.00 in
13:39 46.2 °F 41.3 °F 29.69 in NE 5.0 mph 10.0 mph 83% 0.00 in
13:44 45.9 °F 40.7 °F 29.69 in NNE 9.0 mph 16.0 mph 82% 0.00 in
13:49 45.8 °F 40.9 °F 29.69 in NE 6.0 mph 14.0 mph 83% 0.00 in
13:54 45.7 °F 40.5 °F 29.69 in ENE 11.0 mph 20.0 mph 82% 0.00 in
13:59 45.4 °F 40.2 °F 29.69 in ENE 4.0 mph 17.0 mph 82% 0.00 in
14:04 45.5 °F 40.3 °F 29.69 in East 11.0 mph 16.0 mph 82% 0.00 in
14:09 45.4 °F 40.2 °F 29.69 in SE 8.0 mph 13.0 mph 82% 0.00 in
14:14 45.0 °F 39.8 °F 29.68 in ENE 7.0 mph 14.0 mph 82% 0.00 in
14:19 44.6 °F 39.8 °F 29.69 in NE 7.0 mph 17.0 mph 83% 0.00 in
14:24 44.1 °F 39.3 °F 29.69 in NE 8.0 mph 17.0 mph 83% 0.00 in
14:29 43.8 °F 39.3 °F 29.69 in NE 8.0 mph 16.0 mph 84% 0.00 in
14:34 43.8 °F 39.3 °F 29.68 in ENE 6.0 mph 11.0 mph 84% 0.00 in
14:39 43.7 °F 39.2 °F 29.68 in ENE 7.0 mph 15.0 mph 84% 0.00 in
14:44 43.8 °F 39.0 °F 29.68 in ENE 8.0 mph 15.0 mph 83% 0.00 in
14:49 43.9 °F 39.1 °F 29.69 in NE 10.0 mph 15.0 mph 83% 0.00 in
14:54 44.2 °F 39.4 °F 29.69 in NE 7.0 mph 14.0 mph 83% 0.00 in
14:59 44.1 °F 39.3 °F 29.69 in NNE 6.0 mph 15.0 mph 83% 0.00 in
15:04 43.7 °F 38.9 °F 29.69 in NE 6.0 mph 12.0 mph 83% 0.00 in
15:09 43.4 °F 38.6 °F 29.69 in NE 4.0 mph 11.0 mph 83% 0.00 in
15:14 43.2 °F 38.4 °F 29.69 in NE 8.0 mph 12.0 mph 83% 0.00 in
15:19 43.1 °F 38.3 °F 29.69 in NE 7.0 mph 13.0 mph 83% 0.00 in
15:24 42.9 °F 38.1 °F 29.69 in NE 7.0 mph 13.0 mph 83% 0.00 in
15:29 42.8 °F 38.0 °F 29.69 in NE 7.0 mph 13.0 mph 83% 0.00 in
15:34 42.7 °F 37.9 °F 29.68 in NE 7.0 mph 13.0 mph 83% 0.00 in
15:39 42.6 °F 37.8 °F 29.69 in NE 8.0 mph 13.0 mph 83% 0.00 in
15:44 42.5 °F 37.7 °F 29.69 in NE 7.0 mph 14.0 mph 83% 0.00 in
15:49 42.4 °F 37.3 °F 29.69 in NNE 8.0 mph 16.0 mph 82% 0.00 in
15:54 42.3 °F 37.5 °F 29.69 in NE 8.0 mph 15.0 mph 83% 0.00 in
15:59 42.2 °F 37.1 °F 29.69 in NE 15.0 mph 17.0 mph 82% 0.00 in
16:04 41.9 °F 36.5 °F 29.69 in NE 5.0 mph 18.0 mph 81% 0.00 in
16:09 41.7 °F 36.6 °F 29.69 in ENE 13.0 mph 18.0 mph 82% 0.00 in
16:14 41.6 °F 36.5 °F 29.70 in NE 8.0 mph 14.0 mph 82% 0.00 in
16:19 41.5 °F 36.1 °F 29.70 in NE 9.0 mph 20.0 mph 81% 0.00 in
16:24 41.4 °F 36.0 °F 29.70 in NE 10.0 mph 20.0 mph 81% 0.00 in
16:29 41.3 °F 35.9 °F 29.70 in NE 9.0 mph 18.0 mph 81% 0.00 in
16:34 41.1 °F 35.7 °F 29.70 in NE 9.0 mph 17.0 mph 81% 0.00 in
16:39 40.9 °F 35.5 °F 29.70 in NE 9.0 mph 17.0 mph 81% 0.00 in
16:44 40.7 °F 35.0 °F 29.70 in NE 9.0 mph 16.0 mph 80% 0.00 in
16:49 40.6 °F 35.2 °F 29.71 in NNE 7.0 mph 17.0 mph 81% 0.00 in
16:54 40.5 °F 35.1 °F 29.71 in NE 9.0 mph 18.0 mph 81% 0.00 in
16:59 40.5 °F 35.1 °F 29.71 in ENE 13.0 mph 14.0 mph 81% 0.00 in
17:04 40.4 °F 34.7 °F 29.71 in ENE 12.0 mph 14.0 mph 80% 0.00 in
17:09 40.2 °F 34.5 °F 29.71 in NE 13.0 mph 18.0 mph 80% 0.00 in
17:14 40.1 °F 34.4 °F 29.72 in NE 4.0 mph 17.0 mph 80% 0.00 in
17:19 39.9 °F 34.2 °F 29.72 in NE 8.0 mph 17.0 mph 80% 0.00 in
17:24 39.8 °F 34.1 °F 29.73 in NE 9.0 mph 17.0 mph 80% 0.00 in
17:29 39.7 °F 34.0 °F 29.73 in NE 8.0 mph 17.0 mph 80% 0.00 in
17:34 39.6 °F 33.9 °F 29.74 in ENE 8.0 mph 16.0 mph 80% 0.00 in
17:39 39.5 °F 33.8 °F 29.74 in NE 8.0 mph 16.0 mph 80% 0.00 in
17:44 39.3 °F 33.6 °F 29.74 in ENE 8.0 mph 12.0 mph 80% 0.00 in
17:49 39.1 °F 33.5 °F 29.74 in NE 6.0 mph 12.0 mph 80% 0.00 in
17:54 39.0 °F 33.4 °F 29.74 in NE 8.0 mph 15.0 mph 80% 0.00 in
17:59 38.9 °F 33.3 °F 29.75 in ENE 12.0 mph 15.0 mph 80% 0.00 in
18:04 38.8 °F 33.2 °F 29.75 in NNE 9.0 mph 14.0 mph 80% 0.00 in
18:09 38.8 °F 33.2 °F 29.75 in East 14.0 mph 14.0 mph 80% 0.00 in
18:14 38.8 °F 33.2 °F 29.75 in NNE 4.0 mph 14.0 mph 80% 0.00 in
18:19 38.7 °F 33.1 °F 29.75 in NE 8.0 mph 13.0 mph 80% 0.00 in
18:24 38.7 °F 33.1 °F 29.75 in NE 8.0 mph 15.0 mph 80% 0.00 in
18:29 38.7 °F 33.1 °F 29.75 in NE 8.0 mph 15.0 mph 80% 0.00 in
18:34 38.6 °F 33.0 °F 29.75 in NE 8.0 mph 15.0 mph 80% 0.00 in
18:39 38.6 °F 32.6 °F 29.75 in NE 8.0 mph 15.0 mph 79% 0.00 in
18:44 38.5 °F 32.6 °F 29.75 in ENE 7.0 mph 13.0 mph 79% 0.00 in
18:49 38.5 °F 32.6 °F 29.75 in ENE 4.0 mph 10.0 mph 79% 0.00 in
18:54 38.4 °F 32.5 °F 29.76 in NE 5.0 mph 10.0 mph 79% 0.00 in
18:59 38.3 °F 32.0 °F 29.76 in NE 5.0 mph 11.0 mph 78% 0.00 in
19:04 38.2 °F 31.9 °F 29.76 in NNE 7.0 mph 12.0 mph 78% 0.00 in
19:09 38.2 °F 31.6 °F 29.76 in ESE 7.0 mph 11.0 mph 77% 0.00 in
19:14 38.0 °F 31.4 °F 29.76 in ENE 7.0 mph 16.0 mph 77% 0.00 in
19:19 37.9 °F 31.0 °F 29.76 in ENE 13.0 mph 15.0 mph 76% 0.00 in
19:24 37.8 °F 30.9 °F 29.76 in NE 6.0 mph 14.0 mph 76% 0.00 in
19:29 37.7 °F 31.1 °F 29.77 in ENE 7.0 mph 15.0 mph 77% 0.00 in
19:34 37.6 °F 31.0 °F 29.76 in ENE 7.0 mph 13.0 mph 77% 0.00 in
19:39 37.5 °F 30.9 °F 29.77 in ENE 7.0 mph 16.0 mph 77% 0.00 in
19:44 37.4 °F 30.8 °F 29.76 in NE 8.0 mph 10.0 mph 77% 0.00 in
19:49 37.3 °F 30.7 °F 29.76 in ENE 4.0 mph 15.0 mph 77% 0.00 in
19:54 37.2 °F 30.7 °F 29.76 in East 6.0 mph 10.0 mph 77% 0.00 in
19:59 37.1 °F 30.6 °F 29.76 in ENE 6.0 mph 12.0 mph 77% 0.00 in
20:04 37.1 °F 30.6 °F 29.75 in NNE 10.0 mph 15.0 mph 77% 0.00 in
20:09 37.0 °F 30.5 °F 29.75 in ENE 9.0 mph 15.0 mph 77% 0.00 in
20:14 36.9 °F 30.7 °F 29.75 in ENE 9.0 mph 12.0 mph 78% 0.00 in
20:19 36.8 °F 30.6 °F 29.75 in East 5.0 mph 9.0 mph 78% 0.00 in
20:24 36.7 °F 30.5 °F 29.74 in NE 6.0 mph 11.0 mph 78% 0.00 in
20:29 36.6 °F 30.7 °F 29.74 in NE 7.0 mph 15.0 mph 79% 0.00 in
20:34 36.4 °F 30.5 °F 29.73 in NE 7.0 mph 15.0 mph 79% 0.00 in
20:39 36.1 °F 29.9 °F 29.74 in NE 7.0 mph 15.0 mph 78% 0.00 in
20:44 36.0 °F 29.8 °F 29.74 in NE 7.0 mph 14.0 mph 78% 0.00 in
20:49 35.9 °F 29.7 °F 29.74 in NE 5.0 mph 13.0 mph 78% 0.00 in
20:54 35.8 °F 29.6 °F 29.74 in NE 13.0 mph 13.0 mph 78% 0.00 in
20:59 35.7 °F 29.5 °F 29.74 in ENE 7.0 mph 17.0 mph 78% 0.00 in
21:04 35.6 °F 29.4 °F 29.73 in NE 7.0 mph 17.0 mph 78% 0.00 in
21:09 35.5 °F 29.3 °F 29.73 in NE 5.0 mph 11.0 mph 78% 0.00 in
21:14 35.4 °F 29.2 °F 29.73 in NE 4.0 mph 13.0 mph 78% 0.00 in
21:19 35.4 °F 29.2 °F 29.73 in NE 8.0 mph 13.0 mph 78% 0.00 in
21:24 35.3 °F 29.1 °F 29.73 in ENE 10.0 mph 14.0 mph 78% 0.00 in
21:29 35.3 °F 29.1 °F 29.73 in NE 6.0 mph 15.0 mph 78% 0.00 in
21:34 35.2 °F 29.0 °F 29.73 in ENE 7.0 mph 16.0 mph 78% 0.00 in
21:39 35.2 °F 29.0 °F 29.73 in ENE 6.0 mph 16.0 mph 78% 0.00 in
21:44 35.2 °F 29.0 °F 29.73 in ENE 6.0 mph 14.0 mph 78% 0.00 in
21:49 35.2 °F 29.0 °F 29.74 in NE 5.0 mph 17.0 mph 78% 0.00 in
21:54 35.2 °F 29.0 °F 29.74 in ENE 10.0 mph 10.0 mph 78% 0.00 in
21:59 35.2 °F 29.0 °F 29.74 in NNE 5.0 mph 13.0 mph 78% 0.00 in
22:04 35.1 °F 28.9 °F 29.74 in ENE 5.0 mph 7.0 mph 78% 0.00 in
22:09 35.1 °F 28.9 °F 29.73 in ENE 11.0 mph 15.0 mph 78% 0.00 in
22:14 35.1 °F 28.9 °F 29.74 in ENE 4.0 mph 13.0 mph 78% 0.00 in
22:19 35.1 °F 28.9 °F 29.73 in ENE 10.0 mph 13.0 mph 78% 0.00 in
22:24 35.1 °F 28.9 °F 29.72 in NE 10.0 mph 12.0 mph 78% 0.00 in
22:29 35.0 °F 28.5 °F 29.72 in NE 7.0 mph 16.0 mph 77% 0.00 in
22:34 35.0 °F 28.5 °F 29.73 in NE 8.0 mph 16.0 mph 77% 0.00 in
22:39 34.9 °F 28.4 °F 29.73 in NE 3.0 mph 11.0 mph 77% 0.00 in
22:49 34.8 °F 28.6 °F 29.73 in NNE 10.0 mph 10.0 mph 78% 0.00 in
22:54 34.7 °F 28.5 °F 29.73 in NE 6.0 mph 13.0 mph 78% 0.00 in
22:59 34.7 °F 28.5 °F 29.73 in NE 6.0 mph 13.0 mph 78% 0.00 in
23:04 34.6 °F 28.4 °F 29.73 in NE 7.0 mph 13.0 mph 78% 0.00 in
23:09 34.6 °F 28.4 °F 29.73 in NE 10.0 mph 16.0 mph 78% 0.00 in
23:14 34.6 °F 28.4 °F 29.72 in ENE 8.0 mph 13.0 mph 78% 0.00 in
23:19 34.6 °F 28.1 °F 29.73 in NE 4.0 mph 14.0 mph 77% 0.00 in
23:24 34.6 °F 28.1 °F 29.72 in NE 4.0 mph 15.0 mph 77% 0.00 in
23:29 34.6 °F 28.1 °F 29.72 in NNE 6.0 mph 16.0 mph 77% 0.00 in
23:34 34.5 °F 28.3 °F 29.72 in NE 7.0 mph 16.0 mph 78% 0.00 in
23:39 34.4 °F 28.2 °F 29.72 in NE 7.0 mph 14.0 mph 78% 0.00 in
23:44 34.4 °F 28.2 °F 29.72 in NE 7.0 mph 12.0 mph 78% 0.00 in
23:49 34.4 °F 28.2 °F 29.72 in NE 6.0 mph 12.0 mph 78% 0.00 in
23:54 34.4 °F 28.2 °F 29.72 in ENE 5.0 mph 10.0 mph 78% 0.00 in
23:59 34.4 °F 28.2 °F 29.73 in ENE 7.0 mph 11.0 mph 78% 0.00 in
Buffalo, New York, USA
Compliments of Weather Underground - 2.5 mb